Time;durP1;ratioP1;P1;durP2;ratioP2;P2;SDS_P1;SDS_P2;PMS_P1;PMS_P2;Temp;Humidity;BMP_temperature;BMP_pressure;BME280_temperature;BME280_humidity;BME280_pressure;Samples;Min_cycle;Max_cycle;Signal;HPM_P1;HPM_P2
2022/08/01 00:01:56;;;;;;;19.38;7.80;;;;;;;;;;5053560;28;20072;-78
2022/08/01 00:04:23;;;;;;;14.80;7.15;;;;;;;;;;5053430;28;20475;-78
2022/08/01 00:06:49;;;;;;;13.63;7.45;;;;;;;;;;5054280;28;20137;-78
2022/08/01 00:09:15;;;;;;;16.33;7.97;;;;;;;;;;5053723;28;20056;-77
2022/08/01 00:11:41;;;;;;;16.10;6.55;;;;;;;;;;5053524;28;20041;-74
2022/08/01 00:14:09;;;;;;;14.57;7.43;;;;;;;;;;5053695;28;20040;-79
2022/08/01 00:16:35;;;;;;;15.57;8.00;;;;;;;;;;5053453;28;20057;-79
2022/08/01 00:19:01;;;;;;;16.70;8.60;;;;;;;;;;5053365;28;20061;-79
2022/08/01 00:21:27;;;;;;;15.75;7.40;;;;;;;;;;5053440;28;20053;-81
2022/08/01 00:23:53;;;;;;;15.38;7.32;;;;;;;;;;5053284;28;20075;-76
2022/08/01 00:26:20;;;;;;;13.98;7.03;;;;;;;;;;5052100;28;20095;-74
2022/08/01 00:28:46;;;;;;;12.48;6.80;;;;;;;;;;5053131;28;20049;-79
2022/08/01 00:31:12;;;;;;;12.35;6.30;;;;;;;;;;5053253;28;20087;-75
2022/08/01 00:33:38;;;;;;;14.32;6.35;;;;;;;;;;5053733;28;20045;-80
2022/08/01 00:36:04;;;;;;;13.02;6.78;;;;;;;;;;5052858;28;20060;-77
2022/08/01 00:38:31;;;;;;;15.30;7.85;;;;;;;;;;5053757;28;20057;-79
2022/08/01 00:40:57;;;;;;;15.95;8.48;;;;;;;;;;5052217;28;20056;-76
2022/08/01 00:43:23;;;;;;;;;;;;;;;;;;5053131;28;20405;-77
2022/08/01 00:45:49;;;;;;;17.65;8.15;;;;;;;;;;5052878;28;19920;-76
2022/08/01 00:48:15;;;;;;;;;;;;;;;;;;5053969;28;20112;-77
2022/08/01 00:50:41;;;;;;;18.00;7.85;;;;;;;;;;5052041;28;20340;-77
2022/08/01 00:53:07;;;;;;;;;;;;;;;;;;5053217;28;20087;-75
2022/08/01 00:55:33;;;;;;;17.17;8.25;;;;;;;;;;5035480;28;19927;-76
2022/08/01 00:57:59;;;;;;;;;;;;;;;;;;5053201;28;20127;-75
2022/08/01 01:00:26;;;;;;;17.40;8.00;;;;;;;;;;5052938;28;20023;-75
2022/08/01 01:02:52;;;;;;;17.40;7.53;;;;;;;;;;5053957;28;20128;-74
2022/08/01 01:05:18;;;;;;;;;;;;;;;;;;5053380;28;20401;-76
2022/08/01 01:08:03;;;;;;;14.80;6.68;;;;;;;;;;5053144;28;19920;-76
2022/08/01 01:10:29;;;;;;;16.13;5.82;;;;;;;;;;5052674;28;20055;-75
2022/08/01 01:13:04;;;;;;;16.38;5.63;;;;;;;;;;5052428;28;20036;-72
2022/08/01 01:15:46;;;;;;;16.38;5.57;;;;;;;;;;5052575;28;20099;-75
2022/08/01 01:18:12;;;;;;;12.30;5.20;;;;;;;;;;5053439;28;20080;-75
2022/08/01 01:20:40;;;;;;;15.23;5.97;;;;;;;;;;5035478;28;20381;-74
2022/08/01 01:23:12;;;;;;;17.63;5.80;;;;;;;;;;5052595;28;20163;-77
2022/08/01 01:25:41;;;;;;;16.15;5.35;;;;;;;;;;5052654;28;20417;-77
2022/08/01 01:28:26;;;;;;;14.30;4.78;;;;;;;;;;5053013;28;20067;-80
2022/08/01 01:30:54;;;;;;;12.80;5.00;;;;;;;;;;5052501;28;20557;-74
2022/08/01 01:33:21;;;;;;;12.52;5.13;;;;;;;;;;5052964;28;20423;-72
2022/08/01 01:35:49;;;;;;;12.35;4.40;;;;;;;;;;5052923;28;20091;-73
2022/08/01 01:38:20;;;;;;;14.23;4.53;;;;;;;;;;5052897;28;20049;-76
2022/08/01 01:40:47;;;;;;;18.48;5.20;;;;;;;;;;5052516;28;20063;-81
2022/08/01 01:43:14;;;;;;;13.90;5.28;;;;;;;;;;5053060;28;20067;-81
2022/08/01 01:45:41;;;;;;;11.65;4.82;;;;;;;;;;5052730;28;20381;-80
2022/08/01 01:48:08;;;;;;;13.18;5.03;;;;;;;;;;5052374;28;20053;-82
2022/08/01 01:50:34;;;;;;;15.63;5.50;;;;;;;;;;5034831;28;20384;-78
2022/08/01 01:53:02;;;;;;;15.13;4.97;;;;;;;;;;5052743;28;20045;-74
2022/08/01 01:55:29;;;;;;;12.77;4.53;;;;;;;;;;5052384;28;20049;-74
2022/08/01 01:57:56;;;;;;;15.85;4.68;;;;;;;;;;5051826;28;20484;-75
2022/08/01 02:00:22;;;;;;;15.52;4.95;;;;;;;;;;5052804;28;20049;-74
2022/08/01 02:02:51;;;;;;;13.88;4.45;;;;;;;;;;5055047;28;20385;-76
2022/08/01 02:05:18;;;;;;;14.90;4.53;;;;;;;;;;5055761;28;20049;-74
2022/08/01 02:07:45;;;;;;;15.82;4.38;;;;;;;;;;5038909;28;20457;-75
2022/08/01 02:10:12;;;;;;;14.25;4.05;;;;;;;;;;5055857;28;20045;-75
2022/08/01 02:12:39;;;;;;;17.13;4.22;;;;;;;;;;5055530;28;20400;-75
2022/08/01 02:15:06;;;;;;;14.18;3.83;;;;;;;;;;5055746;28;20083;-74
2022/08/01 02:17:33;;;;;;;10.82;3.55;;;;;;;;;;5055727;28;20045;-76
2022/08/01 02:19:59;;;;;;;10.95;3.65;;;;;;;;;;5056189;28;20072;-74
2022/08/01 02:22:25;;;;;;;;;;;;;;;;;;5057183;28;20507;-74
2022/08/01 02:25:11;;;;;;;14.87;3.87;;;;;;;;;;5055622;28;19975;-75
2022/08/01 02:27:46;;;;;;;12.20;3.55;;;;;;;;;;5055444;28;20044;-74
2022/08/01 02:30:13;;;;;;;13.63;4.22;;;;;;;;;;5056218;28;20055;-74
2022/08/01 02:32:50;;;;;;;17.60;4.20;;;;;;;;;;5055412;28;20041;-75
2022/08/01 02:35:22;;;;;;;16.35;4.88;;;;;;;;;;5055774;28;20051;-76
2022/08/01 02:37:49;;;;;;;18.10;5.03;;;;;;;;;;5055166;28;20093;-76
2022/08/01 02:40:17;;;;;;;21.08;5.45;;;;;;;;;;5055777;28;20049;-74
2022/08/01 02:42:45;;;;;;;23.17;6.30;;;;;;;;;;5055958;28;20084;-75
2022/08/01 02:45:12;;;;;;;23.05;5.63;;;;;;;;;;5055361;28;20037;-74
2022/08/01 02:47:38;;;;;;;24.75;5.60;;;;;;;;;;5055614;28;20055;-72
2022/08/01 02:50:05;;;;;;;23.80;6.05;;;;;;;;;;5055601;28;20041;-70
2022/08/01 02:52:32;;;;;;;18.45;5.68;;;;;;;;;;5055623;28;20045;-73
2022/08/01 02:54:59;;;;;;;19.33;6.18;;;;;;;;;;5055552;28;20099;-74
2022/08/01 02:57:25;;;;;;;19.20;5.40;;;;;;;;;;5054890;28;20052;-74
2022/08/01 02:59:53;;;;;;;20.98;5.78;;;;;;;;;;5054786;28;20103;-75
2022/08/01 03:02:20;;;;;;;18.85;5.63;;;;;;;;;;5037784;28;20183;-74
2022/08/01 03:04:47;;;;;;;20.38;5.43;;;;;;;;;;5054742;28;20048;-75
2022/08/01 03:07:13;;;;;;;15.43;5.25;;;;;;;;;;5054724;28;20102;-75
2022/08/01 03:09:40;;;;;;;17.92;5.60;;;;;;;;;;5054625;28;20052;-74
2022/08/01 03:12:09;;;;;;;19.50;5.70;;;;;;;;;;5055288;28;20052;-74
2022/08/01 03:14:36;;;;;;;15.85;6.00;;;;;;;;;;5054250;28;20041;-74
2022/08/01 03:17:04;;;;;;;14.32;5.70;;;;;;;;;;5054630;28;20124;-72
2022/08/01 03:19:30;;;;;;;21.13;5.30;;;;;;;;;;5054538;28;20045;-73
2022/08/01 03:21:58;;;;;;;17.73;6.10;;;;;;;;;;5054953;28;20143;-74
2022/08/01 03:24:26;;;;;;;15.57;5.55;;;;;;;;;;5054960;28;20099;-75
2022/08/01 03:26:52;;;;;;;19.98;6.18;;;;;;;;;;5054799;28;20041;-77
2022/08/01 03:29:21;;;;;;;16.60;5.30;;;;;;;;;;5054633;28;20052;-73
2022/08/01 03:31:48;;;;;;;20.20;6.22;;;;;;;;;;5054747;28;20141;-73
2022/08/01 03:34:14;;;;;;;19.30;5.78;;;;;;;;;;5054993;28;20369;-73
2022/08/01 03:36:48;;;;;;;18.27;6.13;;;;;;;;;;5054168;28;20060;-76
2022/08/01 03:39:15;;;;;;;19.65;6.32;;;;;;;;;;5053063;28;20048;-73
2022/08/01 03:41:42;;;;;;;19.20;6.25;;;;;;;;;;5054501;28;20095;-74
2022/08/01 03:44:10;;;;;;;17.48;6.28;;;;;;;;;;5053125;28;20338;-72
2022/08/01 03:46:45;;;;;;;16.67;5.68;;;;;;;;;;5053349;28;20432;-74
2022/08/01 03:49:15;;;;;;;18.40;6.28;;;;;;;;;;5053586;28;20430;-73
2022/08/01 03:51:41;;;;;;;19.70;6.10;;;;;;;;;;5053115;28;20603;-74
2022/08/01 03:54:07;;;;;;;;;;;;;;;;;;5053999;28;20087;-75
2022/08/01 03:56:34;;;;;;;17.40;6.40;;;;;;;;;;5053414;28;19925;-74
2022/08/01 03:59:01;;;;;;;18.38;5.47;;;;;;;;;;5054204;28;20052;-75
2022/08/01 04:01:29;;;;;;;21.77;6.65;;;;;;;;;;5053949;28;20104;-74
2022/08/01 04:03:55;;;;;;;16.60;5.93;;;;;;;;;;5054074;28;20055;-75
2022/08/01 04:06:21;;;;;;;;;;;;;;;;;;5053870;28;20055;-74
2022/08/01 04:08:55;;;;;;;18.98;5.70;;;;;;;;;;5053602;28;19992;-75
2022/08/01 04:16:32;;;;;;;18.17;6.10;;;;;;;;;;5357630;22;20399;-82
2022/08/01 04:18:58;;;;;;;;;;;;;;;;;;5025749;28;20128;-82
2022/08/01 04:21:27;;;;;;;19.80;5.25;;;;;;;;;;5026362;28;19952;-81
2022/08/01 04:23:54;;;;;;;17.95;6.03;;;;;;;;;;5026099;28;20123;-79
2022/08/01 04:26:22;;;;;;;18.95;5.28;;;;;;;;;;5026849;28;20111;-81
2022/08/01 04:28:49;;;;;;;17.27;5.68;;;;;;;;;;5025783;28;20395;-80
2022/08/01 04:31:16;;;;;;;23.90;5.95;;;;;;;;;;5025564;28;20422;-79
2022/08/01 04:33:46;;;;;;;26.02;5.82;;;;;;;;;;5026188;28;20484;-79
2022/08/01 04:36:13;;;;;;;21.50;5.45;;;;;;;;;;5027651;28;20090;-79
2022/08/01 04:38:40;;;;;;;19.77;5.13;;;;;;;;;;5026443;28;20132;-80
2022/08/01 04:41:07;;;;;;;21.73;5.95;;;;;;;;;;5026926;28;20471;-77
2022/08/01 04:43:34;;;;;;;22.65;5.88;;;;;;;;;;5025574;28;20045;-76
2022/08/01 04:46:03;;;;;;;21.42;5.97;;;;;;;;;;5026886;28;20049;-77
2022/08/01 04:48:30;;;;;;;17.75;4.97;;;;;;;;;;5022553;28;20087;-78
2022/08/01 04:50:56;;;;;;;21.98;5.25;;;;;;;;;;5007239;28;20351;-74
2022/08/01 04:53:22;;;;;;;21.05;5.45;;;;;;;;;;5023777;28;20489;-75
2022/08/01 04:55:48;;;;;;;16.98;5.47;;;;;;;;;;5026208;28;20124;-75
2022/08/01 04:58:14;;;;;;;;;;;;;;;;;;5026024;28;20103;-75
2022/08/01 05:00:40;;;;;;;19.55;5.60;;;;;;;;;;5025359;28;19941;-75
2022/08/01 05:03:06;;;;;;;20.85;5.72;;;;;;;;;;5026085;28;20052;-75
2022/08/01 05:05:32;;;;;;;;;;;;;;;;;;5024409;28;20437;-75
2022/08/01 05:07:58;;;;;;;19.08;5.90;;;;;;;;;;5026368;28;19921;-77
2022/08/01 05:10:25;;;;;;;25.15;6.00;;;;;;;;;;5025673;28;20413;-75
2022/08/01 05:12:52;;;;;;;24.50;5.72;;;;;;;;;;5026496;28;20114;-77
2022/08/01 05:15:18;;;;;;;;;;;;;;;;;;5025750;28;20149;-77
2022/08/01 05:17:44;;;;;;;23.65;6.38;;;;;;;;;;5026556;28;20004;-77
2022/08/01 05:20:11;;;;;;;21.27;6.38;;;;;;;;;;5025364;28;20138;-77
2022/08/01 05:22:37;;;;;;;30.08;6.93;;;;;;;;;;5026409;28;20053;-77
2022/08/01 05:25:04;;;;;;;;;;;;;;;;;;5025861;28;20103;-79
2022/08/01 05:27:30;;;;;;;27.23;5.95;;;;;;;;;;5025610;28;19921;-78
2022/08/01 05:29:56;;;;;;;;;;;;;;;;;;5026052;28;20068;-78
2022/08/01 05:32:23;;;;;;;29.65;6.05;;;;;;;;;;5026610;28;20352;-78
2022/08/01 05:34:49;;;;;;;37.30;6.32;;;;;;;;;;5025440;28;20041;-78
2022/08/01 05:37:15;;;;;;;24.65;5.75;;;;;;;;;;5027066;28;20068;-77
2022/08/01 05:39:41;;;;;;;29.75;6.60;;;;;;;;;;5010059;28;20046;-78
2022/08/01 05:42:07;;;;;;;22.95;5.75;;;;;;;;;;5030306;28;20049;-79
2022/08/01 05:44:33;;;;;;;29.17;6.53;;;;;;;;;;5028182;28;20046;-78
2022/08/01 05:46:59;;;;;;;30.90;6.13;;;;;;;;;;5030373;28;20099;-78
2022/08/01 05:49:25;;;;;;;25.75;6.20;;;;;;;;;;5010667;28;20046;-78
2022/08/01 05:51:52;;;;;;;23.92;5.82;;;;;;;;;;5030377;28;20152;-78
2022/08/01 05:54:18;;;;;;;29.15;5.97;;;;;;;;;;5029069;28;20052;-79
2022/08/01 05:56:44;;;;;;;28.52;6.22;;;;;;;;;;5029644;28;20457;-79
2022/08/01 05:59:10;;;;;;;23.40;6.03;;;;;;;;;;5029845;28;20045;-79
2022/08/01 06:01:36;;;;;;;26.70;5.63;;;;;;;;;;5029950;28;20259;-78
2022/08/01 06:04:02;;;;;;;27.30;5.88;;;;;;;;;;5011488;28;20046;-80
2022/08/01 06:06:28;;;;;;;;;;;;;;;;;;5027832;28;20453;-81
2022/08/01 06:08:54;;;;;;;24.60;6.20;;;;;;;;;;5029645;28;20016;-79
2022/08/01 06:11:20;;;;;;;24.60;5.55;;;;;;;;;;5027904;28;20045;-81
2022/08/01 06:13:46;;;;;;;22.90;5.15;;;;;;;;;;5029669;28;20073;-80
2022/08/01 06:16:12;;;;;;;31.05;6.45;;;;;;;;;;5029272;28;20065;-82
2022/08/01 06:18:39;;;;;;;28.95;5.13;;;;;;;;;;5030385;28;20305;-83
2022/08/01 06:21:05;;;;;;;25.95;6.30;;;;;;;;;;5030235;28;20405;-85
2022/08/01 06:23:31;;;;;;;20.60;5.38;;;;;;;;;;5012063;28;20065;-85
2022/08/01 06:25:58;;;;;;;;;;;;;;;;;;4996635;28;20049;-87
2022/08/01 06:28:24;;;;;;;23.33;5.55;;;;;;;;;;5010721;28;20359;-81
2022/08/01 06:30:50;;;;;;;23.27;5.43;;;;;;;;;;5024888;28;20053;-80
2022/08/01 06:33:16;;;;;;;;;;;;;;;;;;5032204;28;20068;-80
2022/08/01 06:35:42;;;;;;;22.58;4.88;;;;;;;;;;5027981;28;20011;-82
2022/08/01 06:38:08;;;;;;;22.15;4.80;;;;;;;;;;5027510;28;20058;-81
2022/08/01 06:40:34;;;;;;;20.63;5.00;;;;;;;;;;5028007;28;20050;-81
2022/08/01 06:43:01;;;;;;;23.58;5.75;;;;;;;;;;5033644;28;20056;-84
2022/08/01 06:45:27;;;;;;;22.42;4.72;;;;;;;;;;5036719;28;20041;-82
2022/08/01 06:47:53;;;;;;;26.75;4.60;;;;;;;;;;5032918;28;20179;-79
2022/08/01 06:50:19;;;;;;;26.73;5.60;;;;;;;;;;5029005;28;20068;-78
2022/08/01 06:52:45;;;;;;;25.83;5.95;;;;;;;;;;5018442;28;20087;-78
2022/08/01 06:55:11;;;;;;;21.10;5.18;;;;;;;;;;5022009;28;20042;-77
2022/08/01 06:57:37;;;;;;;;;;;;;;;;;;5027748;28;20123;-77
2022/08/01 07:00:10;;;;;;;21.88;4.50;;;;;;;;;;5027846;28;19925;-76
2022/08/01 07:02:36;;;;;;;18.77;4.35;;;;;;;;;;5025761;28;20063;-75
2022/08/01 07:05:03;;;;;;;;;;;;;;;;;;5025954;28;20041;-75
2022/08/01 07:07:30;;;;;;;18.27;4.40;;;;;;;;;;5028990;28;20352;-75
2022/08/01 07:09:55;;;;;;;;;;;;;;;;;;5025940;28;20081;-78
2022/08/01 07:12:22;;;;;;;22.33;4.90;;;;;;;;;;5025238;28;19967;-78
2022/08/01 07:14:48;;;;;;;20.20;4.47;;;;;;;;;;5026338;28;20042;-79
2022/08/01 07:17:14;;;;;;;23.88;4.28;;;;;;;;;;5026783;28;20107;-84
2022/08/01 07:19:40;;;;;;;19.60;4.55;;;;;;;;;;5026609;28;20121;-87
2022/08/01 07:22:06;;;;;;;20.90;4.70;;;;;;;;;;5027610;28;20048;-81
2022/08/01 07:24:32;;;;;;;21.20;4.32;;;;;;;;;;5020644;28;20053;-80
2022/08/01 07:26:58;;;;;;;20.45;3.97;;;;;;;;;;5025540;28;20049;-77
2022/08/01 07:29:24;;;;;;;;;;;;;;;;;;5027268;28;20464;-76
2022/08/01 07:31:51;;;;;;;18.90;4.40;;;;;;;;;;5028184;28;19929;-84
2022/08/01 07:34:17;;;;;;;15.13;3.63;;;;;;;;;;5026723;28;20096;-79
2022/08/01 07:36:43;;;;;;;17.35;4.05;;;;;;;;;;5026640;28;20147;-76
2022/08/01 07:39:09;;;;;;;21.23;4.22;;;;;;;;;;5026632;28;20049;-83
2022/08/01 07:41:35;;;;;;;19.23;4.25;;;;;;;;;;5020848;28;20049;-75
2022/08/01 07:44:01;;;;;;;19.10;4.50;;;;;;;;;;5020286;28;20107;-74
2022/08/01 07:46:27;;;;;;;17.05;3.90;;;;;;;;;;5022983;28;20050;-75
2022/08/01 07:48:53;;;;;;;19.00;4.05;;;;;;;;;;5010331;28;20049;-73
2022/08/01 07:51:19;;;;;;;20.02;4.10;;;;;;;;;;5010230;28;20124;-78
2022/08/01 07:53:45;;;;;;;13.18;3.25;;;;;;;;;;5023958;28;20120;-80
2022/08/01 07:56:11;;;;;;;19.88;4.78;;;;;;;;;;5027588;28;20048;-74
2022/08/01 07:58:37;;;;;;;23.45;3.90;;;;;;;;;;5027820;28;20060;-81
2022/08/01 08:01:03;;;;;;;21.35;4.28;;;;;;;;;;5010774;28;20129;-81
2022/08/01 08:03:30;;;;;;;21.73;4.20;;;;;;;;;;5020626;28;20064;-85
2022/08/01 08:05:56;;;;;;;13.52;3.15;;;;;;;;;;5009516;28;20118;-83
2022/08/01 08:08:22;;;;;;;;;;;;;;;;;;5018110;28;20049;-78
2022/08/01 08:10:49;;;;;;;20.25;3.40;;;;;;;;;;5028180;28;19928;-77
2022/08/01 08:13:15;;;;;;;15.15;3.40;;;;;;;;;;5028513;28;20468;-75
2022/08/01 08:15:41;;;;;;;19.35;3.85;;;;;;;;;;5028560;28;20061;-80
2022/08/01 08:18:07;;;;;;;;;;;;;;;;;;5007558;28;20358;-73
2022/08/01 08:20:33;;;;;;;17.63;3.50;;;;;;;;;;5024563;28;19921;-77
2022/08/01 08:22:59;;;;;;;17.33;3.55;;;;;;;;;;5008592;28;20097;-74
2022/08/01 08:25:25;;;;;;;;;;;;;;;;;;5009017;28;20369;-74
2022/08/01 08:27:51;;;;;;;16.52;3.88;;;;;;;;;;5008267;28;19933;-75
2022/08/01 08:30:18;;;;;;;18.73;3.50;;;;;;;;;;5007732;28;20046;-74
2022/08/01 08:32:44;;;;;;;13.25;2.83;;;;;;;;;;5007758;28;20057;-83
2022/08/01 08:35:10;;;;;;;;;;;;;;;;;;5017602;28;20545;-84
2022/08/01 08:37:36;;;;;;;15.70;3.10;;;;;;;;;;5027731;28;19953;-81
2022/08/01 08:40:02;;;;;;;;;;;;;;;;;;5027190;28;20128;-75
2022/08/01 08:42:28;;;;;;;16.15;3.85;;;;;;;;;;5027399;28;19963;-73
2022/08/01 08:44:55;;;;;;;17.88;3.95;;;;;;;;;;5007801;28;20140;-73
2022/08/01 08:47:22;;;;;;;14.43;3.17;;;;;;;;;;5008235;28;20057;-71
2022/08/01 08:49:49;;;;;;;15.18;3.10;;;;;;;;;;5007645;28;20089;-80
2022/08/01 08:52:15;;;;;;;17.98;3.55;;;;;;;;;;5014815;28;20049;-77
2022/08/01 08:54:41;;;;;;;16.67;3.28;;;;;;;;;;5027375;28;20047;-78
2022/08/01 08:57:10;;;;;;;16.60;3.60;;;;;;;;;;5027118;28;20384;-74
2022/08/01 08:59:37;;;;;;;15.90;3.92;;;;;;;;;;5027384;28;20057;-73
2022/08/01 09:02:04;;;;;;;17.52;2.97;;;;;;;;;;5027247;28;20476;-75
2022/08/01 09:04:30;;;;;;;16.85;3.00;;;;;;;;;;5022638;28;20165;-71
2022/08/01 09:06:57;;;;;;;15.90;3.25;;;;;;;;;;5024247;28;20128;-73
2022/08/01 09:09:23;;;;;;;13.93;3.28;;;;;;;;;;5027046;28;20046;-78
2022/08/01 09:11:50;;;;;;;17.98;3.20;;;;;;;;;;5008220;28;20184;-75
2022/08/01 09:14:22;;;;;;;;;;;;;;;;;;5028090;28;20049;-71
2022/08/01 09:16:58;;;;;;;18.38;3.92;;;;;;;;;;5027422;28;19976;-81
2022/08/01 09:19:24;;;;;;;;;;;;;;;;;;5027975;28;20380;-76
2022/08/01 09:22:00;;;;;;;16.95;3.70;;;;;;;;;;5025881;28;19980;-76
2022/08/01 09:24:27;;;;;;;18.58;3.67;;;;;;;;;;5023826;28;20038;-68
2022/08/01 09:26:54;;;;;;;15.02;2.78;;;;;;;;;;5021113;28;20566;-69
2022/08/01 09:29:24;;;;;;;17.25;3.20;;;;;;;;;;4997558;28;20474;-70
2022/08/01 09:31:51;;;;;;;18.08;3.08;;;;;;;;;;5013578;28;20144;-70
2022/08/01 09:34:24;;;;;;;12.25;2.95;;;;;;;;;;5008382;28;20046;-70
2022/08/01 09:36:56;;;;;;;10.30;2.88;;;;;;;;;;5006471;28;20485;-69
2022/08/01 09:39:24;;;;;;;17.13;4.00;;;;;;;;;;5010977;28;20054;-69
2022/08/01 09:41:50;;;;;;;14.27;3.67;;;;;;;;;;5006110;28;20389;-69
2022/08/01 09:44:17;;;;;;;;;;;;;;;;;;5004149;28;20057;-70
2022/08/01 09:47:09;;;;;;;12.00;2.95;;;;;;;;;;5023529;28;19921;-70
2022/08/01 09:49:36;;;;;;;16.40;3.58;;;;;;;;;;5019614;28;20045;-71
2022/08/01 09:52:13;;;;;;;18.70;2.90;;;;;;;;;;5023294;28;20053;-70
2022/08/01 09:54:39;;;;;;;16.92;3.35;;;;;;;;;;5025633;28;20081;-70
2022/08/01 09:57:05;;;;;;;;;;;;;;;;;;5026200;28;20460;-69
2022/08/01 09:59:40;;;;;;;17.23;2.97;;;;;;;;;;5023607;28;19933;-68
2022/08/01 10:02:06;;;;;;;15.18;3.20;;;;;;;;;;5020245;28;20122;-68
2022/08/01 10:04:33;;;;;;;14.63;2.42;;;;;;;;;;5022762;28;20132;-72
2022/08/01 10:07:07;;;;;;;13.63;2.78;;;;;;;;;;5023150;28;20511;-70
2022/08/01 10:09:34;;;;;;;12.52;2.55;;;;;;;;;;5026700;28;20049;-69
2022/08/01 10:12:01;;;;;;;13.15;3.03;;;;;;;;;;5006885;28;20053;-68
2022/08/01 10:14:28;;;;;;;14.18;2.67;;;;;;;;;;5009382;28;20049;-69
2022/08/01 10:16:55;;;;;;;14.68;2.83;;;;;;;;;;5022626;28;20160;-68
2022/08/01 10:19:23;;;;;;;13.57;2.95;;;;;;;;;;5026961;28;20079;-68
2022/08/01 10:21:51;;;;;;;14.45;3.35;;;;;;;;;;5024061;28;20057;-68
2022/08/01 10:24:18;;;;;;;15.15;2.70;;;;;;;;;;5022165;28;20049;-69
2022/08/01 10:26:46;;;;;;;12.23;2.90;;;;;;;;;;5029738;28;20114;-68
2022/08/01 10:29:13;;;;;;;15.10;2.63;;;;;;;;;;5019799;28;20101;-69
2022/08/01 10:31:39;;;;;;;13.23;2.60;;;;;;;;;;5020681;28;20053;-68
2022/08/01 10:34:05;;;;;;;;;;;;;;;;;;5018628;28;20049;-69
2022/08/01 10:36:32;;;;;;;12.15;2.50;;;;;;;;;;5022396;28;20348;-71
2022/08/01 10:38:58;;;;;;;13.50;3.05;;;;;;;;;;5018885;28;20111;-71
2022/08/01 10:41:25;;;;;;;17.20;2.90;;;;;;;;;;5020976;28;20056;-67
2022/08/01 10:43:52;;;;;;;11.25;3.08;;;;;;;;;;5028592;28;20056;-68
2022/08/01 10:46:19;;;;;;;15.20;2.88;;;;;;;;;;5026395;28;20060;-72
2022/08/01 10:48:54;;;;;;;16.42;2.85;;;;;;;;;;5025763;28;20366;-74
2022/08/01 10:51:21;;;;;;;15.80;2.78;;;;;;;;;;5025182;28;20461;-70
2022/08/01 10:53:51;;;;;;;13.05;2.65;;;;;;;;;;5026820;28;20068;-70
2022/08/01 10:56:17;;;;;;;14.20;2.70;;;;;;;;;;5029774;28;20445;-68
2022/08/01 10:58:44;;;;;;;12.60;2.85;;;;;;;;;;5028957;28;20115;-68
2022/08/01 11:01:18;;;;;;;14.35;3.15;;;;;;;;;;5009975;28;20132;-68
2022/08/01 11:04:05;;;;;;;11.70;2.55;;;;;;;;;;5029611;28;20045;-67
2022/08/01 11:06:34;;;;;;;12.77;3.03;;;;;;;;;;5029131;28;20428;-69
2022/08/01 11:09:16;;;;;;;13.00;2.65;;;;;;;;;;5029006;28;20136;-68
2022/08/01 11:12:04;;;;;;;12.43;2.40;;;;;;;;;;5026953;28;20088;-68
2022/08/01 11:14:30;;;;;;;12.30;2.75;;;;;;;;;;5028081;28;20049;-67
2022/08/01 11:16:56;;;;;;;;;;;;;;;;;;5028038;28;20470;-67
2022/08/01 11:19:22;;;;;;;12.60;2.42;;;;;;;;;;5029385;28;20004;-67
2022/08/01 11:21:59;;;;;;;826.40;76.43;;;;;;;;;;5027243;28;20092;-72
2022/08/01 11:24:56;;;;;;;316.88;27.63;;;;;;;;;;5028169;28;20112;-65
2022/08/01 11:27:27;;;;;;;10.80;2.35;;;;;;;;;;5001588;28;20061;-66
2022/08/01 11:30:08;;;;;;;46.95;6.28;;;;;;;;;;5029355;28;20049;-66
2022/08/01 11:32:45;;;;;;;58.13;7.07;;;;;;;;;;5008593;28;20042;-66
2022/08/01 11:35:12;;;;;;;19.23;3.10;;;;;;;;;;5024859;28;20542;-66
2022/08/01 11:37:37;;;;;;;;;;;;;;;;;;5028004;28;20107;-66
2022/08/01 11:40:22;;;;;;;11.05;2.35;;;;;;;;;;5028682;28;20296;-67
2022/08/01 11:42:49;;;;;;;22.88;4.45;;;;;;;;;;5028380;28;20110;-66
2022/08/01 11:45:16;;;;;;;22.23;3.80;;;;;;;;;;5025760;28;20144;-66
2022/08/01 11:47:51;;;;;;;11.27;2.63;;;;;;;;;;5025557;28;20077;-67
2022/08/01 11:50:46;;;;;;;9.27;2.17;;;;;;;;;;5009246;28;20045;-67
2022/08/01 11:53:16;;;;;;;12.98;2.53;;;;;;;;;;5006856;28;20060;-65
2022/08/01 11:55:52;;;;;;;11.48;2.30;;;;;;;;;;5028765;28;20049;-66
2022/08/01 11:58:23;;;;;;;13.32;2.38;;;;;;;;;;5025251;28;20081;-65
2022/08/01 12:00:51;;;;;;;14.20;2.50;;;;;;;;;;5027880;28;20151;-67
2022/08/01 12:03:17;;;;;;;13.00;2.65;;;;;;;;;;5025577;28;20105;-64
2022/08/01 12:05:43;;;;;;;;;;;;;;;;;;5010051;28;20071;-64
2022/08/01 12:08:09;;;;;;;8.03;2.00;;;;;;;;;;5023075;28;19921;-66
2022/08/01 12:10:38;;;;;;;16.17;2.40;;;;;;;;;;5024175;28;20132;-68
2022/08/01 12:13:06;;;;;;;9.20;1.95;;;;;;;;;;5025529;28;20086;-75
2022/08/01 12:15:36;;;;;;;10.05;2.20;;;;;;;;;;5028019;28;20061;-68
2022/08/01 12:18:07;;;;;;;13.00;2.58;;;;;;;;;;5027353;28;20053;-67
2022/08/01 12:20:33;;;;;;;14.00;2.70;;;;;;;;;;5027039;28;20042;-67
2022/08/01 12:23:01;;;;;;;11.90;2.80;;;;;;;;;;5025037;28;20130;-67
2022/08/01 12:25:28;;;;;;;8.38;2.13;;;;;;;;;;5027390;28;20097;-68
2022/08/01 12:27:54;;;;;;;11.40;2.53;;;;;;;;;;5025571;28;20171;-69
2022/08/01 12:30:22;;;;;;;;;;;;;;;;;;5020437;28;20179;-68
2022/08/01 12:32:48;;;;;;;10.98;2.42;;;;;;;;;;5024934;28;20011;-67
2022/08/01 12:35:16;;;;;;;17.83;2.83;;;;;;;;;;5022390;28;20038;-69
2022/08/01 12:37:44;;;;;;;16.20;2.65;;;;;;;;;;5023730;28;20484;-69
2022/08/01 12:40:14;;;;;;;12.88;2.30;;;;;;;;;;5025268;28;20049;-68
2022/08/01 12:42:42;;;;;;;13.13;2.83;;;;;;;;;;5022157;28;20120;-69
2022/08/01 12:45:12;;;;;;;12.00;2.53;;;;;;;;;;5023091;28;20052;-67
2022/08/01 12:47:38;;;;;;;10.73;2.30;;;;;;;;;;5017015;28;20055;-69
2022/08/01 12:50:09;;;;;;;12.20;2.05;;;;;;;;;;5025214;28;20053;-70
2022/08/01 12:52:35;;;;;;;14.65;2.50;;;;;;;;;;5021806;28;20076;-69
2022/08/01 12:55:01;;;;;;;;;;;;;;;;;;5026369;28;20186;-69
2022/08/01 12:57:28;;;;;;;12.90;2.70;;;;;;;;;;5018499;28;19936;-69
2022/08/01 13:00:06;;;;;;;11.68;2.58;;;;;;;;;;5020396;28;20133;-67
2022/08/01 13:02:34;;;;;;;11.38;2.28;;;;;;;;;;5024835;28;20053;-68
2022/08/01 13:05:00;;;;;;;15.02;2.63;;;;;;;;;;5022135;28;20113;-68
2022/08/01 13:07:40;;;;;;;13.98;2.78;;;;;;;;;;5023710;28;20064;-67
2022/08/01 13:10:08;;;;;;;13.90;2.40;;;;;;;;;;5022987;28;20417;-67
2022/08/01 13:12:34;;;;;;;13.65;2.45;;;;;;;;;;5020429;28;20038;-69
2022/08/01 13:15:14;;;;;;;10.55;2.10;;;;;;;;;;5022578;28;20037;-69
2022/08/01 13:17:40;;;;;;;10.57;2.35;;;;;;;;;;5018762;28;20049;-69
2022/08/01 13:20:06;;;;;;;;;;;;;;;;;;5018054;28;20052;-68
2022/08/01 13:22:35;;;;;;;12.23;2.47;;;;;;;;;;5017071;28;19929;-69
2022/08/01 13:25:14;;;;;;;12.00;2.85;;;;;;;;;;5016921;28;20047;-68
2022/08/01 13:27:40;;;;;;;9.80;2.10;;;;;;;;;;4993376;28;20107;-69
2022/08/01 13:30:21;;;;;;;11.00;2.10;;;;;;;;;;5025713;28;20450;-68
2022/08/01 13:33:00;;;;;;;9.43;2.13;;;;;;;;;;5014700;28;21120;-67
2022/08/01 13:35:26;;;;;;;10.88;2.30;;;;;;;;;;5021326;28;20047;-67
2022/08/01 13:37:53;;;;;;;12.13;2.30;;;;;;;;;;5007718;28;20056;-66
2022/08/01 13:40:27;;;;;;;13.90;2.90;;;;;;;;;;5027890;28;20136;-67
2022/08/01 13:42:56;;;;;;;13.02;2.50;;;;;;;;;;5000103;28;20065;-65
2022/08/01 13:45:22;;;;;;;11.75;2.70;;;;;;;;;;5026410;28;20053;-65
2022/08/01 13:47:48;;;;;;;13.00;2.60;;;;;;;;;;5022971;28;20488;-65
2022/08/01 13:50:14;;;;;;;10.93;2.38;;;;;;;;;;5021284;28;20653;-65
2022/08/01 13:52:41;;;;;;;10.85;2.33;;;;;;;;;;5023156;28;20041;-66
2022/08/01 13:55:07;;;;;;;;;;;;;;;;;;5026449;28;20060;-65
2022/08/01 13:57:33;;;;;;;10.30;2.20;;;;;;;;;;5006001;28;19921;-72
2022/08/01 13:59:59;;;;;;;11.90;2.35;;;;;;;;;;5028533;28;20068;-67
2022/08/01 14:02:29;;;;;;;11.43;2.20;;;;;;;;;;5012335;28;20045;-72
2022/08/01 14:04:55;;;;;;;13.02;2.40;;;;;;;;;;5025135;28;20104;-65
2022/08/01 14:07:21;;;;;;;11.98;2.72;;;;;;;;;;4994824;28;20370;-67
2022/08/01 14:09:47;;;;;;;14.43;2.95;;;;;;;;;;4992516;28;20212;-67
2022/08/01 14:12:13;;;;;;;11.55;2.55;;;;;;;;;;5029565;28;20080;-66
2022/08/01 14:14:39;;;;;;;;;;;;;;;;;;5024004;28;20325;-66
2022/08/01 14:17:05;;;;;;;10.48;2.50;;;;;;;;;;5024645;28;19921;-66
2022/08/01 14:19:32;;;;;;;14.75;2.70;;;;;;;;;;5011084;28;20476;-67
2022/08/01 14:21:58;;;;;;;;;;;;;;;;;;5027452;28;20045;-67
2022/08/01 14:24:26;;;;;;;11.63;2.83;;;;;;;;;;5024884;28;20021;-66
2022/08/01 14:26:52;;;;;;;13.68;2.50;;;;;;;;;;5027457;28;20140;-66
2022/08/01 14:29:18;;;;;;;14.18;3.20;;;;;;;;;;5028209;28;20053;-66
2022/08/01 14:31:44;;;;;;;;;;;;;;;;;;5010267;28;20041;-68
2022/08/01 14:34:10;;;;;;;13.10;3.05;;;;;;;;;;5033586;28;19928;-69
2022/08/01 14:36:36;;;;;;;11.38;2.53;;;;;;;;;;5035992;28;20463;-68
2022/08/01 14:39:05;;;;;;;14.68;2.70;;;;;;;;;;5035494;28;20050;-69
2022/08/01 14:41:31;;;;;;;14.77;2.90;;;;;;;;;;5036156;28;20103;-69
2022/08/01 14:43:59;;;;;;;12.32;2.60;;;;;;;;;;5018297;28;20053;-68
2022/08/01 14:46:25;;;;;;;11.85;2.38;;;;;;;;;;5018777;28;20415;-69
2022/08/01 14:48:51;;;;;;;;;;;;;;;;;;5036138;28;20093;-69
2022/08/01 14:51:17;;;;;;;12.10;2.83;;;;;;;;;;5035838;28;19982;-68
2022/08/01 14:53:43;;;;;;;15.43;4.05;;;;;;;;;;5037295;28;20045;-67